Time;durP1;ratioP1;P1;durP2;ratioP2;P2;SDS_P1;SDS_P2;PMS_P1;PMS_P2;Temp;Humidity;BMP_temperature;BMP_pressure;BME280_temperature;BME280_humidity;BME280_pressure;Samples;Min_cycle;Max_cycle;Signal;HPM_P1;HPM_P2
2022/02/01 00:01:52;;;;;;;7.30;2.70;;;;;;;;;;5061755;28;20246;-61
2022/02/01 00:04:31;;;;;;;16.93;3.30;;;;;;;;;;5046171;28;20242;-61
2022/02/01 00:14:56;;;;;;;11.93;3.67;;;;;;;;;;5069427;28;20193;-61
2022/02/01 00:36:40;;;;;;;9.43;2.93;;;;;;;;;;5079506;28;20286;-61
2022/02/01 00:39:10;;;;;;;12.20;3.70;;;;;;;;;;5075826;28;20654;-61
2022/02/01 00:41:42;;;;;;;8.33;2.50;;;;;;;;;;5073104;28;20541;-61
2022/02/01 00:44:11;;;;;;;8.70;2.77;;;;;;;;;;5070647;28;20544;-60
2022/02/01 00:46:38;;;;;;;8.63;2.90;;;;;;;;;;5071139;28;20623;-61
2022/02/01 00:49:04;;;;;;;11.57;2.87;;;;;;;;;;5069535;28;20189;-61
2022/02/01 00:51:31;;;;;;;7.87;2.57;;;;;;;;;;5070954;28;20172;-61
2022/02/01 00:53:57;;;;;;;9.67;2.40;;;;;;;;;;5066665;28;20551;-60
2022/02/01 00:56:24;;;;;;;10.13;2.97;;;;;;;;;;5083227;28;20594;-61
2022/02/01 00:58:54;;;;;;;10.67;2.93;;;;;;;;;;5077254;28;20177;-61
2022/02/01 01:01:20;;;;;;;11.03;2.40;;;;;;;;;;5070159;28;20643;-61
2022/02/01 01:03:47;;;;;;;8.47;2.37;;;;;;;;;;5069717;28;20261;-60
2022/02/01 01:06:16;;;;;;;11.43;2.63;;;;;;;;;;5069695;28;20174;-61
2022/02/01 01:08:43;;;;;;;7.57;2.17;;;;;;;;;;5066670;28;20180;-61
2022/02/01 01:11:09;;;;;;;16.50;3.03;;;;;;;;;;5080402;28;20295;-60
2022/02/01 01:44:24;;;;;;;4.93;1.70;;;;;;;;;;5087484;28;20595;-61
2022/02/01 01:55:12;;;;;;;8.63;2.70;;;;;;;;;;5087167;28;20696;-60
2022/02/01 01:57:54;;;;;;;7.50;2.40;;;;;;;;;;5069836;28;20611;-61
2022/02/01 02:03:13;;;;;;;5.50;1.63;;;;;;;;;;5067083;28;20197;-61
2022/02/01 02:05:40;;;;;;;8.70;2.17;;;;;;;;;;5067850;28;20641;-61
2022/02/01 02:08:06;;;;;;;7.33;2.20;;;;;;;;;;5070539;28;20205;-61
2022/02/01 02:10:57;;;;;;;5.83;1.97;;;;;;;;;;5085693;28;20206;-61
2022/02/01 02:18:27;;;;;;;5.57;2.00;;;;;;;;;;5087295;28;20707;-61
2022/02/01 02:20:53;;;;;;;6.73;2.00;;;;;;;;;;5084512;28;20180;-61
2022/02/01 02:23:23;;;;;;;5.47;1.93;;;;;;;;;;5072828;28;20523;-61
2022/02/01 02:25:58;;;;;;;5.73;1.50;;;;;;;;;;5086302;28;20175;-61
2022/02/01 02:28:27;;;;;;;11.57;2.50;;;;;;;;;;5068155;28;20195;-61
2022/02/01 02:31:01;;;;;;;7.77;2.20;;;;;;;;;;5084664;28;20210;-61
2022/02/01 02:33:34;;;;;;;3.73;1.90;;;;;;;;;;5064567;28;20295;-61
2022/02/01 02:36:13;;;;;;;5.37;2.00;;;;;;;;;;5048275;28;20673;-61
2022/02/01 02:39:04;;;;;;;7.23;2.20;;;;;;;;;;5048505;28;20176;-61
2022/02/01 02:41:37;;;;;;;3.90;1.90;;;;;;;;;;5048198;28;20253;-61
2022/02/01 02:46:51;;;;;;;5.77;1.87;;;;;;;;;;5063936;28;20261;-61
2022/02/01 02:49:19;;;;;;;3.97;1.77;;;;;;;;;;5062431;28;20177;-61
2022/02/01 02:51:46;;;;;;;7.83;2.23;;;;;;;;;;5047956;28;20181;-61
2022/02/01 02:54:21;;;;;;;5.03;2.27;;;;;;;;;;5045972;28;20223;-62
2022/02/01 02:56:51;;;;;;;10.57;2.33;;;;;;;;;;5049192;28;20620;-61
2022/02/01 02:59:18;;;;;;;6.67;1.97;;;;;;;;;;5049806;28;20663;-60
2022/02/01 03:01:47;;;;;;;5.33;2.17;;;;;;;;;;5063970;28;20165;-61
2022/02/01 03:04:16;;;;;;;4.73;1.80;;;;;;;;;;5062598;28;20181;-61
2022/02/01 03:06:45;;;;;;;6.63;1.93;;;;;;;;;;5059978;28;20180;-61
2022/02/01 03:09:40;;;;;;;5.53;2.50;;;;;;;;;;5046896;28;20686;-61
2022/02/01 03:12:07;;;;;;;2.87;1.93;;;;;;;;;;5048247;28;20739;-61
2022/02/01 03:14:51;;;;;;;6.47;2.03;;;;;;;;;;5044901;28;20180;-61
2022/02/01 03:17:26;;;;;;;8.37;1.80;;;;;;;;;;5048796;28;20204;-61
2022/02/01 03:19:55;;;;;;;6.47;2.03;;;;;;;;;;5061294;28;20662;-61
2022/02/01 03:22:26;;;;;;;5.37;2.40;;;;;;;;;;5048774;28;20516;-60
2022/02/01 03:24:56;;;;;;;7.63;1.80;;;;;;;;;;5043707;28;20212;-62
2022/02/01 03:27:26;;;;;;;5.77;2.00;;;;;;;;;;5046124;28;20222;-61
2022/02/01 03:29:55;;;;;;;5.17;1.27;;;;;;;;;;5046790;28;20204;-62
2022/02/01 03:32:24;;;;;;;7.70;1.70;;;;;;;;;;5056996;28;20283;-60
2022/02/01 03:34:54;;;;;;;7.77;2.40;;;;;;;;;;5084282;28;20168;-62
2022/02/01 03:37:24;;;;;;;6.47;1.97;;;;;;;;;;5063812;28;20187;-61
2022/02/01 03:39:51;;;;;;;6.13;1.73;;;;;;;;;;5067313;28;20176;-61
2022/02/01 03:42:21;;;;;;;5.20;2.03;;;;;;;;;;5068525;28;20614;-61
2022/02/01 03:44:47;;;;;;;9.77;2.10;;;;;;;;;;5071086;28;20202;-60
2022/02/01 03:47:13;;;;;;;4.47;1.83;;;;;;;;;;5089647;28;20643;-61
2022/02/01 03:49:41;;;;;;;5.67;1.33;;;;;;;;;;5084777;28;20236;-62
2022/02/01 03:52:08;;;;;;;4.97;2.17;;;;;;;;;;5054928;28;20179;-61
2022/02/01 03:54:49;;;;;;;9.87;2.40;;;;;;;;;;5059174;28;20233;-61
2022/02/01 03:57:19;;;;;;;7.57;2.10;;;;;;;;;;5087142;28;20192;-62
2022/02/01 03:59:48;;;;;;;4.10;1.50;;;;;;;;;;5068424;28;20180;-61
2022/02/01 04:02:18;;;;;;;6.10;2.37;;;;;;;;;;5068162;28;20180;-62
2022/02/01 04:04:49;;;;;;;5.47;2.40;;;;;;;;;;5060897;28;20636;-61
2022/02/01 04:07:30;;;;;;;6.23;1.60;;;;;;;;;;5105006;27;20616;-61
2022/02/01 04:09:56;;;;;;;3.73;2.17;;;;;;;;;;5098173;28;20164;-60
2022/02/01 04:12:24;;;;;;;7.37;2.23;;;;;;;;;;5101982;28;20179;-61
2022/02/01 04:14:58;;;;;;;6.00;2.50;;;;;;;;;;5117289;28;20231;-62
2022/02/01 04:17:27;;;;;;;6.93;2.00;;;;;;;;;;5100218;28;20190;-61
2022/02/01 04:19:54;;;;;;;5.73;2.07;;;;;;;;;;5102898;28;20653;-61
2022/02/01 04:22:20;;;;;;;4.93;1.97;;;;;;;;;;5093604;28;20282;-62
2022/02/01 04:24:49;;;;;;;5.13;2.10;;;;;;;;;;5104488;28;20533;-62
2022/02/01 04:30:04;;;;;;;5.37;2.00;;;;;;;;;;5103722;28;20187;-61
2022/02/01 04:32:40;;;;;;;7.53;2.83;;;;;;;;;;5100239;28;20171;-62
2022/02/01 04:35:07;;;;;;;6.53;2.23;;;;;;;;;;5100977;28;20175;-61
2022/02/01 04:37:34;;;;;;;5.80;2.23;;;;;;;;;;5098427;28;20184;-62
2022/02/01 04:40:03;;;;;;;10.97;3.00;;;;;;;;;;5097692;28;20176;-62
2022/02/01 04:42:56;;;;;;;8.63;2.47;;;;;;;;;;5084995;28;20176;-61
2022/02/01 04:45:25;;;;;;;4.67;1.87;;;;;;;;;;5102336;28;20287;-61
2022/02/01 04:47:53;;;;;;;3.97;2.30;;;;;;;;;;5102269;28;20175;-61
2022/02/01 04:50:29;;;;;;;4.37;2.53;;;;;;;;;;5101832;28;20187;-61
2022/02/01 04:52:56;;;;;;;7.53;2.60;;;;;;;;;;5097970;28;20190;-62
2022/02/01 04:55:24;;;;;;;8.97;3.77;;;;;;;;;;5102153;28;20554;-62
2022/02/01 04:57:56;;;;;;;5.00;2.53;;;;;;;;;;5102590;28;20203;-62
2022/02/01 05:00:27;;;;;;;6.00;2.70;;;;;;;;;;5102400;28;20305;-62
2022/02/01 05:02:54;;;;;;;10.57;2.60;;;;;;;;;;5096065;28;20277;-61
2022/02/01 05:05:28;;;;;;;6.50;2.93;;;;;;;;;;5101515;28;20195;-62
2022/02/01 05:07:55;;;;;;;6.73;2.60;;;;;;;;;;5101722;28;20183;-61
2022/02/01 05:10:22;;;;;;;9.23;2.30;;;;;;;;;;5101968;28;20277;-62
2022/02/01 05:13:13;;;;;;;9.00;2.40;;;;;;;;;;5102017;28;20661;-60
2022/02/01 05:15:43;;;;;;;11.37;3.60;;;;;;;;;;5100281;28;20229;-62
2022/02/01 05:18:18;;;;;;;2.80;1.90;;;;;;;;;;5091575;28;20279;-61
2022/02/01 05:20:51;;;;;;;9.70;2.70;;;;;;;;;;5085566;28;20542;-61
2022/02/01 05:23:24;;;;;;;8.97;2.60;;;;;;;;;;5084630;28;20187;-61
2022/02/01 05:25:53;;;;;;;7.33;2.13;;;;;;;;;;5085373;28;20226;-61
2022/02/01 05:28:25;;;;;;;7.60;2.70;;;;;;;;;;5085389;28;20237;-61
2022/02/01 05:31:02;;;;;;;7.33;2.70;;;;;;;;;;5085126;28;20670;-61
2022/02/01 05:33:29;;;;;;;8.37;3.07;;;;;;;;;;5079705;28;20229;-61
2022/02/01 05:35:56;;;;;;;8.43;3.00;;;;;;;;;;5084622;28;20573;-61
2022/02/01 05:38:22;;;;;;;10.17;3.13;;;;;;;;;;5088496;28;20232;-60
2022/02/01 05:40:48;;;;;;;4.33;2.67;;;;;;;;;;5085271;28;20188;-61
2022/02/01 05:43:32;;;;;;;9.47;2.73;;;;;;;;;;5088486;28;20192;-62
2022/02/01 05:46:00;;;;;;;11.90;3.13;;;;;;;;;;5080575;28;20195;-60
2022/02/01 05:48:32;;;;;;;6.93;2.37;;;;;;;;;;5083260;28;20176;-61
2022/02/01 05:51:02;;;;;;;7.00;2.77;;;;;;;;;;5086449;28;20192;-61
2022/02/01 05:53:29;;;;;;;4.70;2.53;;;;;;;;;;5086792;28;20262;-60
2022/02/01 05:55:58;;;;;;;7.90;2.40;;;;;;;;;;5075415;28;20256;-62
2022/02/01 05:58:25;;;;;;;6.43;2.90;;;;;;;;;;5088921;28;20192;-61
2022/02/01 06:00:57;;;;;;;5.57;2.60;;;;;;;;;;5086206;28;20565;-61
2022/02/01 06:03:24;;;;;;;7.77;2.60;;;;;;;;;;5079954;28;20576;-60
2022/02/01 06:05:50;;;;;;;7.77;2.87;;;;;;;;;;5093757;28;20234;-61
2022/02/01 06:08:16;;;;;;;9.70;2.50;;;;;;;;;;5093035;28;20171;-61
2022/02/01 06:10:48;;;;;;;4.47;2.67;;;;;;;;;;5081662;28;20273;-62
2022/02/01 06:13:17;;;;;;;6.93;3.17;;;;;;;;;;5080818;28;20256;-61
2022/02/01 06:15:44;;;;;;;6.27;2.30;;;;;;;;;;5075096;28;20181;-61
2022/02/01 06:18:26;;;;;;;7.37;2.87;;;;;;;;;;5094454;27;20188;-62
2022/02/01 06:20:56;;;;;;;6.30;2.20;;;;;;;;;;5088153;28;20546;-61
2022/02/01 06:23:22;;;;;;;6.30;2.47;;;;;;;;;;5085602;28;20564;-61
2022/02/01 06:25:53;;;;;;;8.57;2.63;;;;;;;;;;5086589;28;20206;-60
2022/02/01 06:28:22;;;;;;;6.70;2.90;;;;;;;;;;5083685;28;20489;-62
2022/02/01 06:30:50;;;;;;;3.57;2.40;;;;;;;;;;5086222;28;20191;-62
2022/02/01 06:33:22;;;;;;;6.37;2.87;;;;;;;;;;5084956;28;20267;-61
2022/02/01 06:35:55;;;;;;;9.97;3.07;;;;;;;;;;5083028;28;20237;-61
2022/02/01 06:38:21;;;;;;;5.87;3.40;;;;;;;;;;5087280;28;20188;-61
2022/02/01 06:40:48;;;;;;;8.63;2.70;;;;;;;;;;5085606;28;20187;-62
2022/02/01 06:43:15;;;;;;;6.30;3.20;;;;;;;;;;5083900;28;20192;-62
2022/02/01 06:45:45;;;;;;;8.40;2.77;;;;;;;;;;5083186;28;20210;-62
2022/02/01 06:48:15;;;;;;;7.63;2.73;;;;;;;;;;5082282;28;20175;-61
2022/02/01 06:50:41;;;;;;;5.17;2.73;;;;;;;;;;5084543;28;20536;-61
2022/02/01 06:53:11;;;;;;;7.73;2.93;;;;;;;;;;5084509;28;20210;-62
2022/02/01 06:58:10;;;;;;;8.57;3.10;;;;;;;;;;5083598;28;20184;-62
2022/02/01 07:00:39;;;;;;;5.83;2.50;;;;;;;;;;5085136;28;20669;-62
2022/02/01 07:03:05;;;;;;;8.57;2.83;;;;;;;;;;5083788;28;20227;-61
2022/02/01 07:05:32;;;;;;;10.07;2.97;;;;;;;;;;5080519;28;20221;-61
2022/02/01 07:07:58;;;;;;;8.00;2.70;;;;;;;;;;5088487;28;20203;-61
2022/02/01 07:10:25;;;;;;;9.60;2.77;;;;;;;;;;5084827;28;20850;-61
2022/02/01 07:12:51;;;;;;;6.53;2.77;;;;;;;;;;5085304;28;20224;-60
2022/02/01 07:15:18;;;;;;;7.47;3.00;;;;;;;;;;5080148;28;20631;-61
2022/02/01 07:17:51;;;;;;;6.97;2.63;;;;;;;;;;5080992;28;20179;-61
2022/02/01 07:20:18;;;;;;;5.03;2.67;;;;;;;;;;5083052;28;20580;-61
2022/02/01 07:22:47;;;;;;;6.03;2.50;;;;;;;;;;5083598;28;20181;-61
2022/02/01 07:25:29;;;;;;;3.50;2.23;;;;;;;;;;5078153;28;20171;-61
2022/02/01 07:27:56;;;;;;;7.00;3.10;;;;;;;;;;5085523;28;20422;-61
2022/02/01 07:30:27;;;;;;;6.40;2.83;;;;;;;;;;5082310;28;20278;-61
2022/02/01 07:33:01;;;;;;;10.50;3.20;;;;;;;;;;5082894;28;20184;-62
2022/02/01 07:35:30;;;;;;;5.60;2.40;;;;;;;;;;5083159;28;20521;-61
2022/02/01 07:38:08;;;;;;;5.97;2.97;;;;;;;;;;5083903;28;20196;-61
2022/02/01 07:40:36;;;;;;;5.27;2.60;;;;;;;;;;5081751;28;20183;-61
2022/02/01 07:43:02;;;;;;;5.67;2.43;;;;;;;;;;5083300;28;20204;-61
2022/02/01 07:45:30;;;;;;;7.07;2.47;;;;;;;;;;5085444;28;20210;-61
2022/02/01 07:48:02;;;;;;;7.63;3.20;;;;;;;;;;5080063;28;20207;-60
2022/02/01 07:50:36;;;;;;;8.30;3.03;;;;;;;;;;5086037;28;20179;-61
2022/02/01 07:53:02;;;;;;;8.27;2.93;;;;;;;;;;5078095;28;20724;-60
2022/02/01 07:55:32;;;;;;;8.13;3.30;;;;;;;;;;5087760;28;20188;-61
2022/02/01 07:58:01;;;;;;;7.03;2.80;;;;;;;;;;5074124;28;20247;-61
2022/02/01 08:00:28;;;;;;;5.43;2.77;;;;;;;;;;5075855;28;20182;-60
2022/02/01 08:02:58;;;;;;;6.10;2.93;;;;;;;;;;5084815;28;20179;-61
2022/02/01 08:05:36;;;;;;;6.93;2.97;;;;;;;;;;5073712;28;20667;-60
2022/02/01 08:08:03;;;;;;;4.93;3.00;;;;;;;;;;5078850;28;20212;-61
2022/02/01 08:10:42;;;;;;;7.30;3.00;;;;;;;;;;5079866;28;20175;-60
2022/02/01 08:14:21;;;;;;;8.33;3.07;;;;;;;;;;5079521;28;20175;-60
2022/02/01 08:19:05;;;;;;;6.77;3.17;;;;;;;;;;5075606;28;20564;-61
2022/02/01 08:21:42;;;;;;;7.17;3.77;;;;;;;;;;5080962;28;20638;-60
2022/02/01 08:24:12;;;;;;;6.77;2.63;;;;;;;;;;5084345;28;20205;-60
2022/02/01 08:26:38;;;;;;;7.37;3.37;;;;;;;;;;5076926;28;20661;-61
2022/02/01 08:29:11;;;;;;;11.37;3.30;;;;;;;;;;5083044;28;20191;-61
2022/02/01 08:31:37;;;;;;;14.37;4.53;;;;;;;;;;5087000;28;20176;-60
2022/02/01 08:34:06;;;;;;;5.70;3.27;;;;;;;;;;5082721;28;20181;-60
2022/02/01 08:36:32;;;;;;;5.97;3.57;;;;;;;;;;5076187;28;20188;-60
2022/02/01 08:38:58;;;;;;;8.97;4.13;;;;;;;;;;5085351;28;20757;-60
2022/02/01 08:41:27;;;;;;;5.83;3.17;;;;;;;;;;5082067;28;20325;-60
2022/02/01 08:43:55;;;;;;;10.07;3.73;;;;;;;;;;5078284;28;20172;-61
2022/02/01 08:46:24;;;;;;;5.20;3.20;;;;;;;;;;5080886;28;20233;-59
2022/02/01 08:49:11;;;;;;;6.37;3.20;;;;;;;;;;5056375;28;20297;-60
2022/02/01 08:51:41;;;;;;;10.57;3.73;;;;;;;;;;5090185;28;20263;-60
2022/02/01 08:54:15;;;;;;;10.60;4.27;;;;;;;;;;5090003;28;20648;-60
2022/02/01 08:59:26;;;;;;;7.10;3.77;;;;;;;;;;5080316;28;20337;-60
2022/02/01 09:01:53;;;;;;;7.00;3.97;;;;;;;;;;5079974;28;21463;-60
2022/02/01 09:04:19;;;;;;;5.90;3.43;;;;;;;;;;5069913;28;20193;-61
2022/02/01 09:06:45;;;;;;;8.20;3.60;;;;;;;;;;5080921;28;20220;-60
2022/02/01 09:09:14;;;;;;;9.83;4.37;;;;;;;;;;5087764;28;20183;-60
2022/02/01 09:11:40;;;;;;;11.27;4.73;;;;;;;;;;5085544;28;20188;-60
2022/02/01 09:14:10;;;;;;;8.57;4.27;;;;;;;;;;5078306;28;20191;-61
2022/02/01 09:16:48;;;;;;;7.13;4.83;;;;;;;;;;5087574;28;20282;-61
2022/02/01 09:19:19;;;;;;;7.93;4.37;;;;;;;;;;5078494;28;20479;-60
2022/02/01 09:21:46;;;;;;;7.70;4.77;;;;;;;;;;5083856;28;20192;-61
2022/02/01 09:24:25;;;;;;;6.97;4.10;;;;;;;;;;5085308;28;20192;-60
2022/02/01 09:26:51;;;;;;;8.73;4.50;;;;;;;;;;5079246;28;20196;-62
2022/02/01 09:29:25;;;;;;;7.73;4.37;;;;;;;;;;5090342;28;20191;-60
2022/02/01 09:31:58;;;;;;;7.27;4.03;;;;;;;;;;5088044;28;20183;-61
2022/02/01 09:34:24;;;;;;;7.30;4.17;;;;;;;;;;5072881;28;20185;-61
2022/02/01 09:36:55;;;;;;;10.20;4.73;;;;;;;;;;5089042;28;20672;-61
2022/02/01 09:39:22;;;;;;;10.60;5.20;;;;;;;;;;5093069;28;20191;-61
2022/02/01 09:42:01;;;;;;;11.60;4.97;;;;;;;;;;5082332;28;20187;-60
2022/02/01 09:44:27;;;;;;;7.93;4.63;;;;;;;;;;5085531;28;20186;-61
2022/02/01 09:46:54;;;;;;;9.63;5.00;;;;;;;;;;5087204;28;20203;-61
2022/02/01 09:49:34;;;;;;;6.27;4.63;;;;;;;;;;5084844;28;20184;-61
2022/02/01 09:52:03;;;;;;;9.23;5.17;;;;;;;;;;5082251;28;20179;-61
2022/02/01 09:54:55;;;;;;;7.63;5.10;;;;;;;;;;5077269;28;20618;-61
2022/02/01 09:57:22;;;;;;;10.30;5.67;;;;;;;;;;5080659;28;20227;-61
2022/02/01 09:59:55;;;;;;;8.07;4.60;;;;;;;;;;5080684;28;20198;-60
2022/02/01 10:02:34;;;;;;;11.70;5.33;;;;;;;;;;5083531;28;20188;-60
2022/02/01 10:05:05;;;;;;;6.97;4.97;;;;;;;;;;5081235;28;20179;-61
2022/02/01 10:07:58;;;;;;;9.77;4.93;;;;;;;;;;5082031;28;20447;-62
2022/02/01 10:10:26;;;;;;;10.43;5.37;;;;;;;;;;5081584;28;20512;-60
2022/02/01 10:13:08;;;;;;;11.13;6.00;;;;;;;;;;5080547;28;20730;-61
2022/02/01 10:16:09;;;;;;;7.30;5.67;;;;;;;;;;5081441;28;20581;-61
2022/02/01 10:18:38;;;;;;;7.77;5.80;;;;;;;;;;5088462;28;20194;-61
2022/02/01 10:21:06;;;;;;;8.97;6.03;;;;;;;;;;5086836;28;20665;-61
2022/02/01 10:23:38;;;;;;;9.47;5.17;;;;;;;;;;5087622;28;20730;-61
2022/02/01 10:26:09;;;;;;;6.83;5.53;;;;;;;;;;5086882;28;20202;-61
2022/02/01 10:31:32;;;;;;;7.67;5.77;;;;;;;;;;5085808;28;20263;-61
2022/02/01 10:34:04;;;;;;;10.17;6.20;;;;;;;;;;5085076;28;20723;-60
2022/02/01 10:36:43;;;;;;;7.37;5.70;;;;;;;;;;5074881;28;20178;-61
2022/02/01 10:39:39;;;;;;;9.33;6.00;;;;;;;;;;5083089;28;20735;-60
2022/02/01 10:42:09;;;;;;;10.20;6.23;;;;;;;;;;5080537;28;20724;-61
2022/02/01 10:44:41;;;;;;;8.13;5.50;;;;;;;;;;5086332;28;20560;-61
2022/02/01 10:47:17;;;;;;;9.10;6.13;;;;;;;;;;5086756;28;20208;-61
2022/02/01 10:49:52;;;;;;;8.10;5.97;;;;;;;;;;5086411;28;20710;-61
2022/02/01 10:52:25;;;;;;;10.73;6.70;;;;;;;;;;5085616;28;20729;-60
2022/02/01 10:54:55;;;;;;;9.27;5.33;;;;;;;;;;5081278;28;20184;-61
2022/02/01 10:57:21;;;;;;;12.97;6.00;;;;;;;;;;5085214;28;20203;-60
2022/02/01 10:59:56;;;;;;;14.13;5.77;;;;;;;;;;5087280;28;20187;-61
2022/02/01 11:02:26;;;;;;;176.37;11.50;;;;;;;;;;5084888;28;20210;-60
2022/02/01 11:04:55;;;;;;;7.30;5.43;;;;;;;;;;5086168;28;20414;-61
2022/02/01 11:07:22;;;;;;;6.80;5.50;;;;;;;;;;5085261;28;20227;-61
2022/02/01 11:09:51;;;;;;;9.53;4.80;;;;;;;;;;5087066;28;20545;-61
2022/02/01 11:12:17;;;;;;;8.60;4.90;;;;;;;;;;5086281;28;20259;-60
2022/02/01 11:14:48;;;;;;;7.03;5.07;;;;;;;;;;5082112;28;20220;-61
2022/02/01 11:17:41;;;;;;;7.03;4.83;;;;;;;;;;5086164;28;20595;-60
2022/02/01 11:20:09;;;;;;;6.80;4.80;;;;;;;;;;5087179;28;20184;-61
2022/02/01 11:22:38;;;;;;;6.83;5.00;;;;;;;;;;5085793;28;20184;-60
2022/02/01 11:25:24;;;;;;;8.10;5.10;;;;;;;;;;5084509;28;20192;-60
2022/02/01 11:30:55;;;;;;;10.63;5.20;;;;;;;;;;5087466;28;20224;-61
2022/02/01 11:33:21;;;;;;;8.37;5.17;;;;;;;;;;5081299;28;20184;-61
2022/02/01 11:35:58;;;;;;;11.20;5.50;;;;;;;;;;5085283;28;20179;-61
2022/02/01 11:38:24;;;;;;;8.13;6.10;;;;;;;;;;5081852;28;20694;-60
2022/02/01 11:41:02;;;;;;;9.17;5.97;;;;;;;;;;5084211;28;20313;-61
2022/02/01 11:43:28;;;;;;;8.63;6.97;;;;;;;;;;5084256;28;20673;-61
2022/02/01 11:46:02;;;;;;;12.27;6.43;;;;;;;;;;5081885;28;20249;-60
2022/02/01 11:48:30;;;;;;;10.17;6.93;;;;;;;;;;5082828;28;20663;-61
2022/02/01 11:51:04;;;;;;;9.20;6.13;;;;;;;;;;5083474;28;20283;-59
2022/02/01 11:53:48;;;;;;;9.20;6.43;;;;;;;;;;5083851;28;20654;-60
2022/02/01 11:56:28;;;;;;;;;;;;;;;;;;;;;
2022/02/01 11:59:02;;;;;;;10.20;6.97;;;;;;;;;;5083979;28;20179;-61
2022/02/01 12:01:39;;;;;;;10.90;7.20;;;;;;;;;;5062777;28;20240;-61
2022/02/01 12:04:14;;;;;;;10.67;7.03;;;;;;;;;;5082549;28;20225;-60
2022/02/01 12:06:46;;;;;;;10.03;7.07;;;;;;;;;;5066372;28;20219;-60
2022/02/01 12:09:23;;;;;;;10.50;7.17;;;;;;;;;;5067278;28;20172;-61
2022/02/01 12:11:54;;;;;;;11.27;7.50;;;;;;;;;;5085065;28;20192;-61
2022/02/01 12:14:24;;;;;;;10.07;7.60;;;;;;;;;;5086574;28;20212;-61
2022/02/01 12:16:51;;;;;;;10.30;7.57;;;;;;;;;;5081464;28;20183;-60
2022/02/01 12:19:25;;;;;;;11.57;8.07;;;;;;;;;;5078921;28;20212;-61
2022/02/01 12:21:57;;;;;;;10.53;7.83;;;;;;;;;;5082857;28;20188;-60
2022/02/01 12:24:27;;;;;;;12.80;8.07;;;;;;;;;;5079144;28;20195;-62
2022/02/01 12:26:55;;;;;;;13.10;8.67;;;;;;;;;;5076471;28;20208;-60
2022/02/01 12:29:34;;;;;;;13.77;9.00;;;;;;;;;;5080731;28;20267;-61
2022/02/01 12:32:14;;;;;;;10.63;8.20;;;;;;;;;;5087148;28;20183;-61
2022/02/01 12:34:43;;;;;;;10.40;7.97;;;;;;;;;;5080645;28;20186;-60
2022/02/01 12:37:24;;;;;;;11.30;8.87;;;;;;;;;;5082065;28;20172;-60
2022/02/01 12:40:11;;;;;;;12.13;7.67;;;;;;;;;;5088470;28;20213;-60
2022/02/01 12:42:52;;;;;;;10.00;7.90;;;;;;;;;;5086627;28;20182;-61
2022/02/01 12:48:08;;;;;;;11.47;8.57;;;;;;;;;;5084256;28;20195;-60
2022/02/01 12:50:35;;;;;;;8.50;6.67;;;;;;;;;;5085808;28;20474;-59
2022/02/01 12:53:03;;;;;;;9.67;7.17;;;;;;;;;;5085108;28;20599;-60
2022/02/01 12:55:36;;;;;;;7.47;6.70;;;;;;;;;;5078886;28;20573;-60
2022/02/01 12:58:11;;;;;;;8.00;6.93;;;;;;;;;;5068322;28;20207;-60
2022/02/01 13:00:37;;;;;;;8.83;7.07;;;;;;;;;;5069954;28;20187;-60
2022/02/01 13:03:04;;;;;;;8.83;6.87;;;;;;;;;;5080681;28;20463;-60
2022/02/01 13:05:31;;;;;;;10.37;6.90;;;;;;;;;;5085258;28;20191;-60
2022/02/01 13:21:16;;;;;;;8.17;6.70;;;;;;;;;;5083867;28;20215;-60
2022/02/01 13:23:50;;;;;;;6.13;5.53;;;;;;;;;;5083376;28;20187;-61
2022/02/01 13:26:22;;;;;;;7.83;5.87;;;;;;;;;;5082985;28;20230;-58
2022/02/01 13:28:59;;;;;;;6.47;5.47;;;;;;;;;;5085643;28;20267;-58
2022/02/01 13:31:29;;;;;;;6.13;4.97;;;;;;;;;;5082606;28;20550;-58
2022/02/01 13:34:04;;;;;;;6.00;4.50;;;;;;;;;;5083836;28;20483;-58
2022/02/01 13:36:51;;;;;;;5.53;4.40;;;;;;;;;;5084133;28;20171;-59
2022/02/01 13:39:32;;;;;;;5.03;4.20;;;;;;;;;;5082848;28;20187;-61
2022/02/01 13:42:06;;;;;;;5.77;4.23;;;;;;;;;;5078799;28;20665;-59
2022/02/01 13:44:35;;;;;;;4.73;3.93;;;;;;;;;;5085851;28;20183;-61
2022/02/01 13:47:08;;;;;;;3.73;3.13;;;;;;;;;;5085015;28;20191;-60
2022/02/01 13:49:34;;;;;;;4.27;3.10;;;;;;;;;;5083361;28;20172;-60
2022/02/01 13:52:00;;;;;;;3.53;3.23;;;;;;;;;;5083624;28;20211;-60
2022/02/01 13:54:44;;;;;;;3.47;3.10;;;;;;;;;;5080150;28;20318;-62
2022/02/01 13:57:21;;;;;;;3.77;2.80;;;;;;;;;;5085668;28;20556;-60
2022/02/01 13:59:48;;;;;;;3.30;2.70;;;;;;;;;;5085828;28;20665;-60
2022/02/01 14:02:34;;;;;;;3.67;2.67;;;;;;;;;;5084785;28;20286;-59
2022/02/01 14:05:17;;;;;;;3.30;2.70;;;;;;;;;;5086259;28;20264;-59
2022/02/01 14:10:40;;;;;;;3.03;2.73;;;;;;;;;;5099863;27;20691;-59
2022/02/01 14:34:57;;;;;;;5.27;4.07;;;;;;;;;;5092802;27;20183;-58
2022/02/01 14:37:40;;;;;;;4.30;3.67;;;;;;;;;;5098386;27;20224;-59
2022/02/01 14:48:48;;;;;;;6.33;4.77;;;;;;;;;;5080910;28;20655;-60
2022/02/01 14:51:29;;;;;;;10.70;5.83;;;;;;;;;;5079839;28;20262;-60
2022/02/01 14:53:56;;;;;;;6.83;5.43;;;;;;;;;;5083058;28;20172;-60
2022/02/01 14:56:27;;;;;;;9.27;4.87;;;;;;;;;;5091342;28;20245;-60
2022/02/01 15:07:07;;;;;;;10.90;5.83;;;;;;;;;;5109517;27;20721;-60
2022/02/01 15:15:47;;;;;;;10.00;6.50;;;;;;;;;;5125794;27;20204;-60
2022/02/01 15:18:13;;;;;;;9.27;5.73;;;;;;;;;;5100520;27;20710;-60
2022/02/01 15:20:51;;;;;;;9.17;6.03;;;;;;;;;;5120366;27;21341;-60
2022/02/01 15:23:20;;;;;;;9.87;6.73;;;;;;;;;;5124091;27;20167;-59
2022/02/01 15:25:47;;;;;;;11.07;6.77;;;;;;;;;;5121524;27;20198;-59
2022/02/01 15:28:22;;;;;;;10.53;6.73;;;;;;;;;;5128554;27;20347;-59
2022/02/01 15:31:08;;;;;;;;;;;;;;;;;;;;;
2022/02/01 15:33:43;;;;;;;8.40;6.30;;;;;;;;;;5110867;27;20175;-59
2022/02/01 15:36:09;;;;;;;9.43;6.07;;;;;;;;;;5107485;27;20216;-60
2022/02/01 15:38:44;;;;;;;9.43;6.57;;;;;;;;;;5128689;27;20687;-59
2022/02/01 15:55:55;;;;;;;7.13;5.37;;;;;;;;;;5129987;27;20257;-58
2022/02/01 15:58:10;;;;;;;9.20;6.40;;;;;;;;;;5124580;27;20178;-59
2022/02/01 16:00:38;;;;;;;6.97;5.50;;;;;;;;;;5109378;27;20563;-59
2022/02/01 16:03:18;;;;;;;8.83;5.10;;;;;;;;;;5122798;27;20563;-60
2022/02/01 16:05:45;;;;;;;12.30;6.57;;;;;;;;;;5113490;27;20182;-59
2022/02/01 16:11:24;;;;;;;12.40;6.13;;;;;;;;;;5064818;28;20277;-59
2022/02/01 16:13:55;;;;;;;12.33;6.30;;;;;;;;;;5105800;28;20240;-59
2022/02/01 16:16:21;;;;;;;13.30;7.00;;;;;;;;;;5102533;28;20179;-59
2022/02/01 16:18:52;;;;;;;11.73;6.03;;;;;;;;;;5110588;28;20185;-59
2022/02/01 16:21:19;;;;;;;10.60;6.30;;;;;;;;;;5099574;28;20588;-59
2022/02/01 16:23:45;;;;;;;8.87;7.00;;;;;;;;;;5085264;28;20179;-60
2022/02/01 16:26:11;;;;;;;11.17;5.80;;;;;;;;;;5092061;28;20230;-59
2022/02/01 16:28:47;;;;;;;11.10;6.10;;;;;;;;;;5086271;28;20653;-59
2022/02/01 16:31:15;;;;;;;11.40;6.33;;;;;;;;;;5101635;28;20182;-59
2022/02/01 16:33:52;;;;;;;7.20;5.70;;;;;;;;;;5097964;28;20187;-60
2022/02/01 16:36:24;;;;;;;8.37;6.13;;;;;;;;;;5106135;28;20537;-59
2022/02/01 16:38:59;;;;;;;9.17;5.80;;;;;;;;;;5081590;28;20209;-59
2022/02/01 16:41:33;;;;;;;10.73;6.23;;;;;;;;;;5104683;28;20565;-59
2022/02/01 16:44:02;;;;;;;10.93;5.80;;;;;;;;;;5081993;28;20664;-59
2022/02/01 16:46:32;;;;;;;6.67;5.77;;;;;;;;;;5085559;28;20204;-59
2022/02/01 16:49:11;;;;;;;12.27;6.33;;;;;;;;;;5102322;28;20171;-59
2022/02/01 16:51:48;;;;;;;8.07;5.83;;;;;;;;;;5063145;28;20328;-59
2022/02/01 16:54:16;;;;;;;10.60;6.47;;;;;;;;;;5082490;28;20190;-59
2022/02/01 16:56:53;;;;;;;11.37;6.13;;;;;;;;;;5101764;28;20213;-59
2022/02/01 16:59:24;;;;;;;11.13;6.10;;;;;;;;;;5086008;28;20235;-59
2022/02/01 17:01:50;;;;;;;10.57;5.80;;;;;;;;;;5087600;28;20229;-59
2022/02/01 17:04:20;;;;;;;10.47;6.00;;;;;;;;;;5101747;28;20516;-59
2022/02/01 17:06:56;;;;;;;11.37;5.87;;;;;;;;;;5111910;27;20563;-59
2022/02/01 17:09:25;;;;;;;7.77;5.50;;;;;;;;;;5110756;28;20174;-59
2022/02/01 17:12:05;;;;;;;11.27;6.17;;;;;;;;;;5104801;28;20170;-59
2022/02/01 17:17:47;;;;;;;7.40;5.40;;;;;;;;;;5122954;27;20214;-59
2022/02/01 17:23:07;;;;;;;11.10;5.33;;;;;;;;;;5125813;27;20181;-59
2022/02/01 17:25:36;;;;;;;13.80;6.00;;;;;;;;;;5126994;27;20698;-60
2022/02/01 17:28:02;;;;;;;10.87;5.50;;;;;;;;;;5109536;27;20677;-60
2022/02/01 17:31:00;;;;;;;9.20;5.73;;;;;;;;;;5111275;27;20183;-59
2022/02/01 17:33:38;;;;;;;11.43;5.53;;;;;;;;;;5121444;27;20305;-59
2022/02/01 17:36:05;;;;;;;10.13;4.87;;;;;;;;;;5110406;27;20187;-59
2022/02/01 17:38:31;;;;;;;5.97;4.40;;;;;;;;;;5123496;27;20182;-59
2022/02/01 17:40:59;;;;;;;12.43;5.13;;;;;;;;;;5121394;27;20718;-59
2022/02/01 17:43:43;;;;;;;7.53;5.13;;;;;;;;;;5102705;27;20182;-59
2022/02/01 17:46:11;;;;;;;11.63;5.03;;;;;;;;;;5130765;27;20194;-59
2022/02/01 17:48:39;;;;;;;9.67;4.73;;;;;;;;;;5109658;27;20170;-59
2022/02/01 17:51:13;;;;;;;9.50;4.87;;;;;;;;;;5123044;27;20262;-59
2022/02/01 17:53:53;;;;;;;7.87;4.10;;;;;;;;;;5126220;27;20174;-59
2022/02/01 17:56:22;;;;;;;6.43;4.80;;;;;;;;;;5103945;27;20209;-59
2022/02/01 17:59:12;;;;;;;11.27;4.70;;;;;;;;;;5103537;27;20179;-59
2022/02/01 18:01:38;;;;;;;12.50;5.00;;;;;;;;;;5094951;27;20263;-59
2022/02/01 18:04:04;;;;;;;9.97;4.27;;;;;;;;;;5118330;27;20587;-59
2022/02/01 18:06:35;;;;;;;10.57;4.70;;;;;;;;;;5107214;27;20222;-59
2022/02/01 18:09:13;;;;;;;11.00;3.67;;;;;;;;;;5077658;28;20215;-59